Meteo Giornale » Osservazioni meteo Austria » Vienna-Schwechat

ore: 06:50 - Osservazioni Meteo Vienna-Schwechat
Lat. 48° 7' N Lon. 16° 34' E Alt. 183 metri s.l.m.

sereno Europe/Vienna

21 °C

Sereno

Temp. 24 Ore

18 °C

34 °C

Sud/Sud-Ovest

9.3 Km/h

Dew point 14 °C

Umidità 64 %

Visibilità  10 Km

Il sole sorge alle ore 05:50

Il sole tramonta alle ore 20:04

Data e Ora Cielo e Fenomeni T °C DP °C Um. % Pres. hPa Vis. km Vento km/h
Oggi h: 06:50 sereno Sereno 21 14 64 1011 10 S/SO 9.3
Oggi h: 06:20 sereno Sereno 18 14 77 1010 10 N 1.8
Oggi h: 05:50 sereno Sereno 18 15 82 1010 10 N 5.5
Oggi h: 05:20 sereno Sereno 18 14 77 1010 10 N 3.7
Oggi h: 04:50 sereno Sereno 20 14 68 1010 10 N 5.5
Oggi h: 04:20 sereno Sereno 20 13 64 1010 10 N 5.5
Oggi h: 03:50 sereno Sereno 21 13 60 1011 10 S/SE 7.4
Oggi h: 03:20 sereno Sereno 21 12 56 1011 10 N 5.5
Oggi h: 02:50 sereno Sereno 21 14 64 1011 10 N 1.8
Oggi h: 02:20 sereno Sereno 21 14 64 1010 10 N 5.5
Oggi h: 01:50 sereno Sereno 22 13 56 1010 10 N 3.7
Oggi h: 01:20 sereno Sereno 23 12 49 1011 10 N 3.7
Oggi h: 00:50 sereno Sereno 24 12 47 1011 10 N 3.7
Oggi h: 00:20 sereno Sereno 25 12 44 1011 10 N 1.8
Ieri h: 23:50 sereno Sereno 25 13 47 1011 10 N 5.5
Ieri h: 23:20 sereno Sereno 25 14 50 1011 10 E/SE 7.4
Ieri h: 22:50 sereno Sereno 26 13 44 1011 10 N 5.5
Ieri h: 22:20 sereno Sereno 26 13 44 1010 10 E/NE 7.4
Ieri h: 21:50 sereno Sereno 25 13 47 1010 10 E/SE 7.4
Ieri h: 21:20 sereno Sereno 27 13 42 1011 10 E 7.4
Ieri h: 20:50 sereno Sereno 28 12 37 1011 10 E/SE 9.3
Ieri h: 20:20 sereno Sereno 29 12 35 1010 10 E 9.3
Ieri h: 19:50 sereno Sereno 30 12 33 1010 10 E/NE 7.4
Ieri h: 19:20 sereno Sereno 31 12 31 1010 10 E/NE 7.4
Ieri h: 18:50 sereno Sereno 33 11 26 1010 10 NE 9.3
Ieri h: 18:20 sereno Sereno 33 11 26 1010 10 NE 9.3
Ieri h: 17:50 sereno Sereno 33 11 26 1010 10 NE 13
Ieri h: 17:20 sereno Sereno 34 11 24 1010 10 NE 13
Ieri h: 16:50 sereno Sereno 34 11 24 1010 10 E/NE 11.1
Ieri h: 16:20 sereno Sereno 34 11 24 1010 10 N/NE 11.1
Ieri h: 15:50 sereno Sereno 33 11 26 1010 10 N 9.3
Ieri h: 15:20 sereno Sereno 34 12 26 1010 10 E/NE 9.3
Ieri h: 14:50 sereno Sereno 34 12 26 1010 10 E/NE 11.1
Ieri h: 14:20 sereno Sereno 34 12 26 1011 10 NE 13
Ieri h: 13:50 sereno Sereno 32 12 29 1011 10 NE 11.1
Ieri h: 13:20 sereno Sereno 33 13 29 1011 10 E/NE 13
Ieri h: 12:50 sereno Sereno 31 13 33 1011 10 NE 11.1
Ieri h: 12:20 sereno Sereno 31 14 35 1011 10 N 9.3
Ieri h: 11:50 sereno Sereno 30 15 40 1012 10 N 5.5
Ieri h: 11:20 sereno Sereno 30 15 40 1012 10 N 5.5
Ieri h: 10:50 sereno Sereno 28 15 45 1012 10 NE 7.4
Ieri h: 10:20 sereno Sereno 27 15 47 1012 10 N 5.5
Ieri h: 09:50 sereno Sereno 26 15 50 1012 10 N 5.5
Ieri h: 09:20 sereno Sereno 26 15 50 1012 10 N 7.4
Ieri h: 08:50 sereno Sereno 24 15 57 1012 10 N 5.5
Ieri h: 08:20 sereno Sereno 24 14 53 1012 10 N 3.7
Ieri h: 07:50 sereno Sereno 22 14 60 1012 10 N 3.7